createdAt,value
2022-09-12T00:01:08.823Z,101306.38
2022-09-12T00:02:12.111Z,101305.53
2022-09-12T00:03:14.741Z,101301.16
2022-09-12T00:04:16.393Z,101302.00
2022-09-12T00:05:19.064Z,101298.63
2022-09-12T00:06:23.615Z,101299.47
2022-09-12T00:07:26.122Z,101309.47
2022-09-12T00:08:27.645Z,101303.16
2022-09-12T00:09:30.129Z,101297.78
2022-09-12T00:10:33.004Z,101300.31
2022-09-12T00:11:37.307Z,101298.63
2022-09-12T00:12:38.879Z,101299.47
2022-09-12T00:13:43.220Z,101300.31
2022-09-12T00:14:44.788Z,101296.94
2022-09-12T00:15:47.273Z,101297.78
2022-09-12T00:16:48.860Z,101290.75
2022-09-12T00:17:51.629Z,101296.94
2022-09-12T00:18:54.516Z,101293.41
2022-09-12T00:19:56.559Z,101298.78
2022-09-12T00:21:03.809Z,101290.75
2022-09-12T00:22:05.343Z,101295.41
2022-09-12T00:23:07.833Z,101291.88
2022-09-12T00:24:10.651Z,101292.72
2022-09-12T00:25:13.369Z,101285.69
2022-09-12T00:26:17.553Z,101284.84
2022-09-12T00:27:20.271Z,101283.97
2022-09-12T00:28:21.807Z,101293.03
2022-09-12T00:29:24.319Z,101284.16
2022-09-12T00:30:25.952Z,101288.66
2022-09-12T00:31:28.812Z,101291.34
2022-09-12T00:32:30.982Z,101284.28
2022-09-12T00:33:33.571Z,101283.59
2022-09-12T00:34:36.036Z,101289.06
2022-09-12T00:35:44.090Z,101282.88
2022-09-12T00:36:45.678Z,101294.59
2022-09-12T00:37:48.199Z,101287.72
2022-09-12T00:38:50.542Z,101291.38
2022-09-12T00:39:53.112Z,101290.66
2022-09-12T00:40:54.670Z,101282.63
2022-09-12T00:41:58.494Z,101282.63
2022-09-12T00:43:00.028Z,101282.78
2022-09-12T00:44:23.619Z,101283.47
2022-09-12T00:45:28.526Z,101286.16
2022-09-12T00:46:38.928Z,101278.13
2022-09-12T00:47:41.761Z,101281.81
2022-09-12T00:48:48.345Z,101278.28
2022-09-12T00:49:55.394Z,101280.09
2022-09-12T00:50:57.925Z,101273.06
2022-09-12T00:52:05.558Z,101276.75
2022-09-12T00:53:09.897Z,101276.75
2022-09-12T00:54:16.555Z,101279.25
2022-09-12T00:55:22.379Z,101269.41
2022-09-12T00:56:24.447Z,101270.38
2022-09-12T00:57:32.945Z,101266.03
2022-09-12T00:58:39.923Z,101267.00
2022-09-12T00:59:48.061Z,101267.13
2022-09-12T01:00:50.631Z,101262.63
2022-09-12T01:01:53.598Z,101261.22
2022-09-12T01:02:58.835Z,101258.56
2022-09-12T01:04:02.080Z,101257.88
2022-09-12T01:05:05.647Z,101253.50
2022-09-12T01:06:14.270Z,101254.50
2022-09-12T01:07:16.295Z,101262.53
2022-09-12T01:08:18.923Z,101258.16
2022-09-12T01:09:23.001Z,101260.97
2022-09-12T01:10:25.662Z,101261.81
2022-09-12T01:11:28.341Z,101260.00
2022-09-12T01:12:33.041Z,101266.19
2022-09-12T01:13:35.552Z,101267.19
2022-09-12T01:14:39.162Z,101262.84
2022-09-12T01:15:42.085Z,101265.50
2022-09-12T01:16:45.737Z,101264.66
2022-09-12T01:18:01.836Z,101270.88
2022-09-12T01:19:20.112Z,101263.81
2022-09-12T01:21:00.102Z,101264.66
2022-09-12T01:22:18.401Z,101262.13
2022-09-12T01:24:05.916Z,101267.47
2022-09-12T01:25:25.494Z,101257.91
2022-09-12T01:27:04.610Z,101259.59
2022-09-12T01:28:43.228Z,101253.41
2022-09-12T01:30:24.686Z,101250.84
2022-09-12T01:31:35.324Z,101255.34
2022-09-12T01:32:53.353Z,101250.00
2022-09-12T01:34:04.501Z,101255.34
2022-09-12T01:35:20.980Z,101256.38
2022-09-12T01:36:35.750Z,101248.34
2022-09-12T01:37:44.601Z,101253.69
2022-09-12T01:38:50.896Z,101243.84
2022-09-12T01:40:00.401Z,101250.00
2022-09-12T01:41:12.666Z,101249.03
2022-09-12T01:42:21.338Z,101248.03
2022-09-12T01:43:27.202Z,101253.41
2022-09-12T01:44:37.468Z,101245.38
2022-09-12T01:45:44.563Z,101248.03
2022-09-12T01:46:53.787Z,101247.19
2022-09-12T01:48:02.163Z,101244.53
2022-09-12T01:49:12.550Z,101249.03
2022-09-12T01:50:19.609Z,101246.34
2022-09-12T01:51:26.268Z,101239.31
2022-09-12T01:52:32.796Z,101241.16
2022-09-12T01:53:39.387Z,101241.25
2022-09-12T01:54:47.217Z,101243.94
2022-09-12T01:55:52.186Z,101231.53
2022-09-12T01:57:00.600Z,101232.53
2022-09-12T01:58:07.672Z,101233.53
2022-09-12T01:59:15.980Z,101236.19
2022-09-12T02:00:18.136Z,101229.16
2022-09-12T02:01:25.383Z,101225.63
2022-09-12T02:02:33.968Z,101232.84
2022-09-12T02:03:44.922Z,101229.16
2022-09-12T02:04:52.648Z,101223.78
2022-09-12T02:06:00.383Z,101225.50
2022-09-12T02:07:08.180Z,101222.66
2022-09-12T02:08:15.017Z,101232.53
2022-09-12T02:09:22.616Z,101230.84
2022-09-12T02:10:33.832Z,101228.00
2022-09-12T02:11:41.052Z,101225.19
2022-09-12T02:12:47.200Z,101219.00
2022-09-12T02:13:55.153Z,101226.06
2022-09-12T02:15:03.260Z,101225.19
2022-09-12T02:16:11.214Z,101218.91
2022-09-12T02:17:16.512Z,101224.25
2022-09-12T02:18:22.010Z,101211.81
2022-09-12T02:19:26.695Z,101223.38
2022-09-12T02:20:47.459Z,101221.56
2022-09-12T02:21:53.652Z,101225.19
2022-09-12T02:22:58.469Z,101221.56
2022-09-12T02:24:03.053Z,101221.56
2022-09-12T02:25:09.021Z,101222.53
2022-09-12T02:26:18.863Z,101218.16
2022-09-12T02:27:24.946Z,101216.50
2022-09-12T02:28:30.914Z,101225.34
2022-09-12T02:29:33.689Z,101222.81
2022-09-12T02:30:43.051Z,101219.16
2022-09-12T02:31:47.977Z,101221.84
2022-09-12T02:32:58.276Z,101225.50
2022-09-12T02:34:10.864Z,101225.50
2022-09-12T02:35:22.149Z,101223.78
2022-09-12T02:36:34.480Z,101223.78
2022-09-12T02:37:48.597Z,101220.44
2022-09-12T02:38:51.685Z,101226.63
2022-09-12T02:39:55.301Z,101216.91
2022-09-12T02:40:57.973Z,101217.75
2022-09-12T02:42:01.757Z,101216.91
2022-09-12T02:43:06.357Z,101212.53
2022-09-12T02:44:07.916Z,101211.69
2022-09-12T02:45:12.367Z,101217.88
2022-09-12T02:46:20.361Z,101216.22
2022-09-12T02:47:29.807Z,101214.38
2022-09-12T02:48:35.997Z,101210.88
2022-09-12T02:49:39.983Z,101216.22
2022-09-12T02:50:42.227Z,101209.19
2022-09-12T02:51:45.905Z,101210.03
2022-09-12T02:52:48.520Z,101205.53
2022-09-12T02:53:51.550Z,101208.34
2022-09-12T02:54:54.661Z,101204.81
2022-09-12T02:55:57.740Z,101206.63
2022-09-12T02:56:59.286Z,101199.63
2022-09-12T02:58:04.175Z,101199.63
2022-09-12T02:59:09.071Z,101203.28
2022-09-12T03:00:12.924Z,101206.91
2022-09-12T03:01:26.306Z,101204.25
2022-09-12T03:02:39.971Z,101198.91
2022-09-12T03:04:05.789Z,101201.72
2022-09-12T03:05:22.252Z,101201.88
2022-09-12T03:06:33.159Z,101201.88
2022-09-12T03:08:05.786Z,101203.84
2022-09-12T03:09:17.293Z,101203.00
2022-09-12T03:10:24.881Z,101196.81
2022-09-12T03:11:52.192Z,101197.81
2022-09-12T03:13:08.703Z,101201.47
2022-09-12T03:14:26.582Z,101197.09
2022-09-12T03:15:40.075Z,101196.25
2022-09-12T03:16:49.684Z,101200.75
2022-09-12T03:18:05.525Z,101194.59
2022-09-12T03:19:16.438Z,101192.88
2022-09-12T03:20:29.288Z,101199.09
2022-09-12T03:21:37.216Z,101195.69
2022-09-12T03:22:53.400Z,101194.72
2022-09-12T03:24:05.425Z,101196.53
2022-09-12T03:25:17.476Z,101199.38
2022-09-12T03:26:27.062Z,101195.00
2022-09-12T03:27:33.873Z,101189.66
2022-09-12T03:28:36.500Z,101191.50
2022-09-12T03:29:41.609Z,101195.97
2022-09-12T03:30:45.221Z,101199.66
2022-09-12T03:31:51.496Z,101198.66
2022-09-12T03:32:54.828Z,101199.66
2022-09-12T03:33:57.304Z,101199.50
2022-09-12T03:34:59.027Z,101203.16
2022-09-12T03:36:03.359Z,101205.84
2022-09-12T03:37:06.601Z,101200.50
2022-09-12T03:38:08.600Z,101201.50
2022-09-12T03:39:11.153Z,101205.03
2022-09-12T03:40:12.806Z,101204.19
2022-09-12T03:41:15.317Z,101199.66
2022-09-12T03:42:17.897Z,101199.66
2022-09-12T03:43:20.643Z,101199.66
2022-09-12T03:44:22.761Z,101198.94
2022-09-12T03:45:25.309Z,101197.00
2022-09-12T03:46:26.911Z,101201.63
2022-09-12T03:47:29.854Z,101193.59
2022-09-12T03:48:31.738Z,101197.97
2022-09-12T03:49:34.236Z,101192.63
2022-09-12T03:50:35.843Z,101197.13
2022-09-12T03:51:39.841Z,101204.31
2022-09-12T03:52:41.368Z,101196.28
2022-09-12T03:53:44.365Z,101191.78
2022-09-12T03:54:45.896Z,101197.97
2022-09-12T03:55:48.400Z,101192.63
2022-09-12T03:56:49.936Z,101193.47
2022-09-12T03:57:53.818Z,101198.81
2022-09-12T03:58:55.392Z,101194.31
2022-09-12T03:59:57.978Z,101192.63
2022-09-12T04:00:59.730Z,101184.59
2022-09-12T04:02:02.745Z,101187.28
2022-09-12T04:03:04.324Z,101192.63
2022-09-12T04:04:06.846Z,101189.09
2022-09-12T04:05:08.992Z,101183.75
2022-09-12T04:06:14.701Z,101189.25
2022-09-12T04:07:17.624Z,101189.09
2022-09-12T04:08:20.117Z,101189.25
2022-09-12T04:09:21.718Z,101190.25
2022-09-12T04:10:24.197Z,101182.22
2022-09-12T04:11:25.746Z,101187.56
2022-09-12T04:12:28.236Z,101186.72
2022-09-12T04:13:29.758Z,101187.56
2022-09-12T04:14:32.266Z,101182.22
2022-09-12T04:15:33.843Z,101185.88
2022-09-12T04:16:36.351Z,101183.19
2022-09-12T04:17:38.170Z,101188.53
2022-09-12T04:18:40.753Z,101180.53
2022-09-12T04:19:42.295Z,101178.81
2022-09-12T04:20:44.793Z,101181.50
2022-09-12T04:21:46.384Z,101180.53
2022-09-12T04:22:50.275Z,101186.84
2022-09-12T04:23:51.838Z,101184.19
2022-09-12T04:24:54.324Z,101185.88
2022-09-12T04:25:56.507Z,101189.53
2022-09-12T04:26:59.285Z,101187.84
2022-09-12T04:28:01.054Z,101188.84
2022-09-12T04:29:03.629Z,101186.16
2022-09-12T04:30:06.348Z,101179.97
2022-09-12T04:31:12.270Z,101186.31
2022-09-12T04:32:14.986Z,101178.31
2022-09-12T04:33:17.795Z,101182.81
2022-09-12T04:34:20.356Z,101186.31
2022-09-12T04:35:21.913Z,101180.13
2022-09-12T04:36:25.561Z,101177.44
2022-09-12T04:37:27.083Z,101180.13
2022-09-12T04:38:30.911Z,101180.25
2022-09-12T04:39:32.508Z,101177.44
2022-09-12T04:40:35.009Z,101173.09
2022-09-12T04:41:38.862Z,101182.09
2022-09-12T04:42:41.402Z,101176.72
2022-09-12T04:43:46.287Z,101174.91
2022-09-12T04:44:49.436Z,101170.53
2022-09-12T04:45:51.878Z,101179.41
2022-09-12T04:46:54.772Z,101180.41
2022-09-12T04:47:56.449Z,101179.41
2022-09-12T04:48:58.939Z,101175.88
2022-09-12T04:50:00.431Z,101175.75
2022-09-12T04:51:11.081Z,101168.72
2022-09-12T04:52:12.600Z,101167.72
2022-09-12T04:53:15.172Z,101163.38
2022-09-12T04:54:19.556Z,101166.03
2022-09-12T04:55:25.214Z,101166.03
2022-09-12T04:56:28.463Z,101164.38
2022-09-12T04:57:30.973Z,101163.38
2022-09-12T04:58:33.114Z,101169.56
2022-09-12T04:59:35.625Z,101173.09
2022-09-12T05:00:37.145Z,101166.75
2022-09-12T05:01:40.036Z,101165.91
2022-09-12T05:02:42.155Z,101170.13
2022-09-12T05:03:45.634Z,101169.13
2022-09-12T05:04:47.176Z,101166.47
2022-09-12T05:05:53.257Z,101168.97
2022-09-12T05:06:57.356Z,101170.81
2022-09-12T05:08:00.159Z,101167.16
2022-09-12T05:09:03.260Z,101166.16
2022-09-12T05:10:08.275Z,101162.66
2022-09-12T05:11:13.340Z,101167.03
2022-09-12T05:12:15.823Z,101166.16
2022-09-12T05:13:17.359Z,101157.16
2022-09-12T05:14:19.914Z,101160.81
2022-09-12T05:15:21.503Z,101169.53
2022-09-12T05:16:25.789Z,101157.16
2022-09-12T05:17:29.113Z,101162.34
2022-09-12T05:18:32.745Z,101160.53
2022-09-12T05:19:35.479Z,101155.19
2022-09-12T05:20:37.253Z,101157.00
2022-09-12T05:21:40.317Z,101155.19
2022-09-12T05:22:41.903Z,101152.34
2022-09-12T05:23:44.574Z,101155.88
2022-09-12T05:24:50.429Z,101154.03
2022-09-12T05:25:57.511Z,101148.56
2022-09-12T05:27:00.181Z,101155.72
2022-09-12T05:28:02.122Z,101157.13
2022-09-12T05:29:05.460Z,101153.63
2022-09-12T05:30:08.490Z,101156.97
2022-09-12T05:31:14.353Z,101156.84
2022-09-12T05:32:15.932Z,101167.38
2022-09-12T05:33:22.013Z,101167.25
2022-09-12T05:34:27.773Z,101162.75
2022-09-12T05:35:29.390Z,101168.63
2022-09-12T05:36:32.092Z,101156.81
2022-09-12T05:37:33.651Z,101165.38
2022-09-12T05:38:37.325Z,101161.56
2022-09-12T05:39:38.999Z,101153.94
2022-09-12T05:40:41.525Z,101161.69
2022-09-12T05:41:44.442Z,101151.41
2022-09-12T05:42:46.932Z,101153.63
2022-09-12T05:43:52.875Z,101154.03
2022-09-12T05:44:55.354Z,101153.72
2022-09-12T05:46:00.987Z,101156.78
2022-09-12T05:47:03.593Z,101151.00
2022-09-12T05:48:05.302Z,101147.03
2022-09-12T05:49:09.744Z,101156.47
2022-09-12T05:50:12.207Z,101154.34
2022-09-12T05:51:19.237Z,101159.22
2022-09-12T05:52:20.881Z,101152.56
2022-09-12T05:53:28.051Z,101160.19
2022-09-12T05:54:31.788Z,101162.38
2022-09-12T05:55:34.118Z,101162.94
2022-09-12T05:56:40.256Z,101155.44
2022-09-12T05:57:45.981Z,101166.53
2022-09-12T05:58:54.033Z,101161.88
2022-09-12T05:59:55.601Z,101162.56
2022-09-12T06:01:03.073Z,101170.28
2022-09-12T06:02:05.639Z,101169.28
2022-09-12T06:03:07.277Z,101173.50
2022-09-12T06:04:10.497Z,101167.00
2022-09-12T06:05:12.066Z,101170.38
2022-09-12T06:06:16.057Z,101171.06
2022-09-12T06:07:17.609Z,101172.75
2022-09-12T06:08:20.127Z,101170.91
2022-09-12T06:09:22.757Z,101176.81
2022-09-12T06:10:26.270Z,101174.81
2022-09-12T06:11:31.074Z,101179.19
2022-09-12T06:12:32.663Z,101179.88
2022-09-12T06:13:38.399Z,101175.19
2022-09-12T06:14:40.934Z,101179.56
2022-09-12T06:15:42.466Z,101179.28
2022-09-12T06:16:45.378Z,101179.81
2022-09-12T06:17:51.365Z,101185.72
2022-09-12T06:18:55.890Z,101182.06
2022-09-12T06:19:57.465Z,101180.88
2022-09-12T06:21:03.791Z,101184.25
2022-09-12T06:22:06.278Z,101178.06
2022-09-12T06:23:07.842Z,101191.31
2022-09-12T06:24:10.712Z,101187.63
2022-09-12T06:25:12.409Z,101183.13
2022-09-12T06:26:16.603Z,101177.44
2022-09-12T06:27:18.723Z,101179.09
2022-09-12T06:28:21.370Z,101181.66
2022-09-12T06:29:25.760Z,101191.22
2022-09-12T06:30:27.903Z,101183.03
2022-09-12T06:31:33.081Z,101183.56
2022-09-12T06:32:34.777Z,101181.56
2022-09-12T06:33:39.150Z,101180.41
2022-09-12T06:34:40.727Z,101182.94
2022-09-12T06:35:43.649Z,101178.25
2022-09-12T06:36:47.781Z,101182.31
2022-09-12T06:37:49.512Z,101184.81
2022-09-12T06:38:56.115Z,101182.00
2022-09-12T06:39:57.814Z,101179.19
2022-09-12T06:41:00.553Z,101176.31
2022-09-12T06:42:03.577Z,101180.53
2022-09-12T06:43:05.770Z,101178.69
2022-09-12T06:44:08.370Z,101173.19
2022-09-12T06:45:11.616Z,101172.00
2022-09-12T06:46:14.135Z,101174.53
2022-09-12T06:47:15.840Z,101182.44
2022-09-12T06:48:18.504Z,101175.91
2022-09-12T06:49:20.154Z,101176.59
2022-09-12T06:50:22.648Z,101176.44
2022-09-12T06:51:24.497Z,101177.94
2022-09-12T06:52:29.030Z,101173.28
2022-09-12T06:53:33.225Z,101179.19
2022-09-12T06:54:35.830Z,101175.47
2022-09-12T06:55:37.342Z,101175.16
2022-09-12T06:56:39.877Z,101177.53
2022-09-12T06:57:41.412Z,101183.59
2022-09-12T06:58:44.826Z,101178.03
2022-09-12T06:59:46.392Z,101184.13
2022-09-12T07:00:50.336Z,101183.78
2022-09-12T07:01:51.971Z,101178.44
2022-09-12T07:02:56.331Z,101177.25
2022-09-12T07:04:00.158Z,101183.31
2022-09-12T07:05:02.944Z,101179.81
2022-09-12T07:06:06.302Z,101187.72
2022-09-12T07:07:09.188Z,101184.03
2022-09-12T07:08:10.764Z,101182.19
2022-09-12T07:09:17.258Z,101184.69
2022-09-12T07:10:22.215Z,101175.66
2022-09-12T07:11:26.959Z,101176.31
2022-09-12T07:12:28.922Z,101177.19
2022-09-12T07:13:31.448Z,101178.03
2022-09-12T07:14:34.026Z,101187.91
2022-09-12T07:15:36.286Z,101176.00
2022-09-12T07:16:40.322Z,101190.44
2022-09-12T07:17:41.935Z,101179.72
2022-09-12T07:18:46.141Z,101189.44
2022-09-12T07:19:47.738Z,101183.06
2022-09-12T07:20:50.224Z,101180.56
2022-09-12T07:21:55.321Z,101183.06
2022-09-12T07:23:01.106Z,101189.44
2022-09-12T07:24:47.672Z,101181.56
2022-09-12T07:25:53.161Z,101178.03
2022-09-12T07:26:56.029Z,101190.78
2022-09-12T07:27:57.540Z,101189.94
2022-09-12T07:29:25.244Z,101191.44
2022-09-12T07:30:23.346Z,101194.13
2022-09-12T07:31:27.445Z,101185.22
2022-09-12T07:32:36.274Z,101189.59
2022-09-12T07:33:38.802Z,101184.75
2022-09-12T07:34:41.294Z,101180.25
2022-09-12T07:35:42.843Z,101178.38
2022-09-12T07:36:45.506Z,101184.44
2022-09-12T07:37:47.201Z,101178.75
2022-09-12T07:38:57.219Z,101182.09
2022-09-12T07:39:59.367Z,101178.09
2022-09-12T07:41:02.397Z,101181.44
2022-09-12T07:42:04.316Z,101172.91
2022-09-12T07:43:06.961Z,101175.97
2022-09-12T07:44:09.560Z,101174.81
2022-09-12T07:45:11.269Z,101171.78
2022-09-12T07:46:14.491Z,101173.16
2022-09-12T07:47:16.041Z,101170.97
2022-09-12T07:48:19.898Z,101169.81
2022-09-12T07:49:21.455Z,101170.47
2022-09-12T07:50:24.266Z,101165.78
2022-09-12T07:51:27.349Z,101166.28
2022-09-12T07:52:29.937Z,101165.16
2022-09-12T07:53:33.949Z,101166.81
2022-09-12T07:54:36.542Z,101163.97
2022-09-12T07:55:38.141Z,101171.03
2022-09-12T07:56:40.771Z,101175.56
2022-09-12T07:57:42.325Z,101176.56
2022-09-12T07:58:45.600Z,101182.94
2022-09-12T07:59:52.897Z,101185.47
2022-09-12T08:00:55.910Z,101177.56
2022-09-12T08:01:58.699Z,101187.31
2022-09-12T08:03:00.231Z,101185.47
2022-09-12T08:04:05.023Z,101184.47
2022-09-12T08:05:07.158Z,101186.31
2022-09-12T08:06:11.545Z,101174.53
2022-09-12T08:07:14.652Z,101180.75
2022-09-12T08:08:16.173Z,101176.22
2022-09-12T08:09:18.849Z,101171.69
2022-09-12T08:10:20.560Z,101171.53
2022-09-12T08:11:24.986Z,101173.22
2022-09-12T08:12:28.878Z,101168.69
2022-09-12T08:13:32.280Z,101168.84
2022-09-12T08:14:47.862Z,101174.22
2022-09-12T08:15:51.801Z,101173.41
2022-09-12T08:16:57.525Z,101171.22
2022-09-12T08:17:59.125Z,101180.94
2022-09-12T08:19:02.433Z,101176.94
2022-09-12T08:20:06.396Z,101184.66
2022-09-12T08:21:13.644Z,101179.94
2022-09-12T08:22:16.176Z,101187.72
2022-09-12T08:23:17.937Z,101182.81
2022-09-12T08:24:20.446Z,101188.03
2022-09-12T08:25:21.975Z,101185.06
2022-09-12T08:26:25.081Z,101186.41
2022-09-12T08:27:27.577Z,101190.63
2022-09-12T08:28:29.993Z,101184.91
2022-09-12T08:29:32.472Z,101191.47
2022-09-12T08:30:34.037Z,101198.19
2022-09-12T08:31:37.246Z,101186.09
2022-09-12T08:32:38.790Z,101188.47
2022-09-12T08:33:41.601Z,101187.97
2022-09-12T08:34:43.137Z,101178.88
2022-09-12T08:35:47.420Z,101186.59
2022-09-12T08:36:49.882Z,101190.81
2022-09-12T08:37:51.429Z,101184.91
2022-09-12T08:38:59.877Z,101183.75
2022-09-12T08:40:06.559Z,101187.63
2022-09-12T08:41:21.844Z,101177.03
2022-09-12T08:42:33.650Z,101192.50
2022-09-12T08:44:00.541Z,101175.66
2022-09-12T08:45:14.765Z,101177.66
2022-09-12T08:46:21.606Z,101178.00
2022-09-12T08:47:29.691Z,101175.50
2022-09-12T08:48:31.365Z,101174.81
2022-09-12T08:49:39.693Z,101174.78
2022-09-12T08:50:49.256Z,101173.94
2022-09-12T08:51:55.142Z,101173.22
2022-09-12T08:53:02.863Z,101169.19
2022-09-12T08:54:09.789Z,101169.50
2022-09-12T08:55:28.468Z,101170.00
2022-09-12T08:56:37.331Z,101174.88
2022-09-12T08:57:39.536Z,101169.13
2022-09-12T08:58:44.151Z,101174.16
2022-09-12T08:59:46.353Z,101173.81
2022-09-12T09:00:56.538Z,101172.44
2022-09-12T09:02:00.892Z,101169.56
2022-09-12T09:03:30.828Z,101164.66
2022-09-12T09:04:42.842Z,101167.38
2022-09-12T09:05:52.118Z,101165.88
2022-09-12T09:07:15.591Z,101163.38
2022-09-12T09:08:28.789Z,101163.72
2022-09-12T09:09:43.820Z,101164.72
2022-09-12T09:10:51.863Z,101168.41
2022-09-12T09:12:00.615Z,101165.91
2022-09-12T09:13:35.133Z,101162.53
2022-09-12T09:14:49.513Z,101163.09
2022-09-12T09:16:04.073Z,101168.81
2022-09-12T09:17:11.319Z,101158.41
2022-09-12T09:18:20.928Z,101165.78
2022-09-12T09:19:28.026Z,101162.44
2022-09-12T09:20:37.191Z,101165.50
2022-09-12T09:21:43.438Z,101166.50
2022-09-12T09:22:50.845Z,101165.00
2022-09-12T09:23:59.988Z,101163.50
2022-09-12T09:25:08.913Z,101178.13
2022-09-12T09:26:16.337Z,101169.19
2022-09-12T09:27:40.582Z,101163.81
2022-09-12T09:28:47.622Z,101159.28
2022-09-12T09:29:53.096Z,101159.13
2022-09-12T09:30:55.869Z,101157.25
2022-09-12T09:32:03.341Z,101160.63
2022-09-12T09:33:12.481Z,101152.72
2022-09-12T09:34:19.757Z,101150.69
2022-09-12T09:35:32.161Z,101151.53
2022-09-12T09:36:49.352Z,101145.28
2022-09-12T09:38:01.767Z,101145.94
2022-09-12T09:39:07.161Z,101151.19
2022-09-12T09:40:18.924Z,101149.97
2022-09-12T09:41:36.110Z,101139.22
2022-09-12T09:42:45.074Z,101142.56
2022-09-12T09:43:48.036Z,101139.69
2022-09-12T09:44:53.107Z,101141.03
2022-09-12T09:45:57.390Z,101143.38
2022-09-12T09:47:00.241Z,101143.88
2022-09-12T09:48:16.051Z,101138.97
2022-09-12T09:49:19.339Z,101137.09
2022-09-12T09:50:22.533Z,101133.03
2022-09-12T09:51:28.084Z,101137.22
2022-09-12T09:52:32.809Z,101140.59
2022-09-12T09:53:41.624Z,101137.56
2022-09-12T09:54:49.471Z,101131.97
2022-09-12T09:55:53.939Z,101135.16
2022-09-12T09:56:57.148Z,101134.00
2022-09-12T09:57:58.721Z,101123.84
2022-09-12T09:59:11.781Z,101128.88
2022-09-12T10:00:30.513Z,101125.34
2022-09-12T10:01:32.344Z,101126.38
2022-09-12T10:02:35.171Z,101120.81
2022-09-12T10:03:39.023Z,101119.59
2022-09-12T10:04:53.464Z,101121.16
2022-09-12T10:05:58.719Z,101121.63
2022-09-12T10:07:03.235Z,101119.41
2022-09-12T10:08:07.767Z,101121.75
2022-09-12T10:09:23.734Z,101109.78
2022-09-12T10:10:25.541Z,101122.06
2022-09-12T10:11:30.209Z,101118.50
2022-09-12T10:12:31.768Z,101116.47
2022-09-12T10:13:38.508Z,101119.00
2022-09-12T10:14:42.860Z,101119.66
2022-09-12T10:15:57.112Z,101118.63
2022-09-12T10:16:59.939Z,101121.97
2022-09-12T10:18:03.023Z,101116.25
2022-09-12T10:19:05.743Z,101117.91
2022-09-12T10:20:31.159Z,101116.91
2022-09-12T10:21:39.349Z,101113.84
2022-09-12T10:22:47.533Z,101117.19
2022-09-12T10:23:59.836Z,101114.13
2022-09-12T10:25:11.857Z,101109.41
2022-09-12T10:26:15.397Z,101118.16
2022-09-12T10:27:21.315Z,101112.41
2022-09-12T10:28:30.067Z,101110.38
2022-09-12T10:29:36.125Z,101110.19
2022-09-12T10:30:37.859Z,101106.47
2022-09-12T10:31:48.314Z,101098.84
2022-09-12T10:32:51.409Z,101100.72
2022-09-12T10:33:55.525Z,101102.03
2022-09-12T10:35:00.581Z,101099.97
2022-09-12T10:36:03.730Z,101096.06
2022-09-12T10:37:08.741Z,101095.69
2022-09-12T10:38:19.566Z,101089.13
2022-09-12T10:39:22.446Z,101094.16
2022-09-12T10:40:29.237Z,101087.53
2022-09-12T10:41:37.836Z,101090.88
2022-09-12T10:42:47.225Z,101088.47
2022-09-12T10:43:50.652Z,101085.44
2022-09-12T10:44:54.094Z,101088.63
2022-09-12T10:45:58.813Z,101081.16
2022-09-12T10:47:21.050Z,101076.44
2022-09-12T10:48:27.884Z,101073.53
2022-09-12T10:49:37.925Z,101072.53
2022-09-12T10:50:41.332Z,101077.53
2022-09-12T10:51:43.949Z,101064.69
2022-09-12T10:52:46.424Z,101067.38
2022-09-12T10:53:48.091Z,101069.72
2022-09-12T10:54:50.961Z,101067.84
2022-09-12T10:56:03.776Z,101065.81
2022-09-12T10:57:31.348Z,101067.31
2022-09-12T10:59:04.315Z,101065.63
2022-09-12T11:00:15.644Z,101064.59
2022-09-12T11:01:30.327Z,101070.66
2022-09-12T11:02:49.124Z,101068.78
2022-09-12T11:04:11.194Z,101064.03
2022-09-12T11:05:22.448Z,101060.16
2022-09-12T11:06:34.132Z,101061.41
2022-09-12T11:07:43.829Z,101055.66
2022-09-12T11:08:59.329Z,101056.94
2022-09-12T11:10:12.071Z,101052.22
2022-09-12T11:11:31.990Z,101050.16
2022-09-12T11:12:41.213Z,101047.28
2022-09-12T11:14:00.937Z,101053.97
2022-09-12T11:15:24.913Z,101053.56
2022-09-12T11:16:33.559Z,101051.53
2022-09-12T11:17:49.276Z,101042.00
2022-09-12T11:19:17.329Z,101045.19
2022-09-12T11:20:45.917Z,101048.53
2022-09-12T11:22:00.441Z,101047.16
2022-09-12T11:23:24.870Z,101043.41
2022-09-12T11:24:44.085Z,101035.28
2022-09-12T11:25:52.605Z,101034.06
2022-09-12T11:27:08.844Z,101033.03
2022-09-12T11:28:31.024Z,101027.63
2022-09-12T11:29:47.929Z,101024.78
2022-09-12T11:31:05.925Z,101036.88
2022-09-12T11:32:47.553Z,101026.06
2022-09-12T11:33:52.376Z,101032.75
2022-09-12T11:35:04.988Z,101027.81
2022-09-12T11:36:21.481Z,101027.44
2022-09-12T11:37:39.837Z,101024.16
2022-09-12T11:39:00.310Z,101030.03
2022-09-12T11:40:17.516Z,101032.53
2022-09-12T11:41:26.184Z,101031.50
2022-09-12T11:42:34.235Z,101028.41
2022-09-12T11:43:43.255Z,101025.31
2022-09-12T11:44:54.368Z,101017.88
2022-09-12T11:46:01.348Z,101024.09
2022-09-12T11:47:09.054Z,101018.50
2022-09-12T11:48:32.375Z,101018.50
2022-09-12T11:49:38.616Z,101018.50
2022-09-12T11:50:40.672Z,101014.31
2022-09-12T11:51:50.745Z,101016.81
2022-09-12T11:52:56.129Z,101011.41
2022-09-12T11:54:05.832Z,101019.53
2022-09-12T11:55:17.031Z,101012.25
2022-09-12T11:56:19.773Z,101013.09
2022-09-12T11:57:31.745Z,101015.81
2022-09-12T11:58:37.064Z,101015.81
2022-09-12T11:59:47.153Z,101012.06
2022-09-12T12:00:53.469Z,101003.97
2022-09-12T12:02:00.169Z,101008.13
2022-09-12T12:03:10.089Z,101017.94
2022-09-12T12:04:14.087Z,101014.00
2022-09-12T12:05:21.782Z,101019.19
2022-09-12T12:06:31.446Z,101009.03
2022-09-12T12:07:44.734Z,101007.19
2022-09-12T12:08:51.388Z,101014.63
2022-09-12T12:09:53.206Z,101005.28
2022-09-12T12:10:59.506Z,101013.22
2022-09-12T12:12:06.672Z,101000.72
2022-09-12T12:13:19.212Z,100999.06
2022-09-12T12:14:25.666Z,101004.66
2022-09-12T12:15:30.370Z,101000.72
2022-09-12T12:16:34.119Z,100998.69
2022-09-12T12:17:36.770Z,100996.78
2022-09-12T12:18:39.997Z,100991.19
2022-09-12T12:19:42.931Z,100994.75
2022-09-12T12:20:44.845Z,100993.50
2022-09-12T12:21:49.137Z,100987.06
2022-09-12T12:22:52.013Z,100994.78
2022-09-12T12:24:13.733Z,100997.09
2022-09-12T12:25:41.059Z,100990.69
2022-09-12T12:26:57.298Z,100984.22
2022-09-12T12:28:01.909Z,100983.81
2022-09-12T12:29:03.725Z,100987.19
2022-09-12T12:30:56.817Z,100989.66
2022-09-12T12:32:21.182Z,100992.59
2022-09-12T12:34:06.174Z,100976.34
2022-09-12T12:35:39.939Z,100980.09
2022-09-12T12:36:42.905Z,100983.41
2022-09-12T12:37:53.383Z,100975.78
2022-09-12T12:38:55.094Z,100971.03
2022-09-12T12:40:01.101Z,100977.91
2022-09-12T12:41:41.184Z,100967.28
2022-09-12T12:43:02.737Z,100960.38